sensor_id;sensor_type;location;lat;lon;timestamp;temperature;humidity
23873;DHT22;42884;50.718;4.630;2022-09-24T00:00:35;14.70;99.90
23873;DHT22;42884;50.718;4.630;2022-09-24T00:03:02;14.70;99.90
23873;DHT22;42884;50.718;4.630;2022-09-24T00:05:27;14.70;99.90
23873;DHT22;42884;50.718;4.630;2022-09-24T00:07:53;14.80;99.90
23873;DHT22;42884;50.718;4.630;2022-09-24T00:10:19;14.80;99.90
23873;DHT22;42884;50.718;4.630;2022-09-24T00:12:44;14.80;99.90
23873;DHT22;42884;50.718;4.630;2022-09-24T00:15:10;14.80;99.90
23873;DHT22;42884;50.718;4.630;2022-09-24T00:17:35;14.80;99.90
23873;DHT22;42884;50.718;4.630;2022-09-24T00:20:01;14.80;99.90
23873;DHT22;42884;50.718;4.630;2022-09-24T00:22:27;14.80;99.90
23873;DHT22;42884;50.718;4.630;2022-09-24T00:24:52;14.80;99.90
23873;DHT22;42884;50.718;4.630;2022-09-24T00:27:37;14.80;99.90
23873;DHT22;42884;50.718;4.630;2022-09-24T00:30:02;14.70;99.90
23873;DHT22;42884;50.718;4.630;2022-09-24T00:32:28;14.70;99.90
23873;DHT22;42884;50.718;4.630;2022-09-24T00:34:53;14.70;99.90
23873;DHT22;42884;50.718;4.630;2022-09-24T00:37:19;14.70;99.90
23873;DHT22;42884;50.718;4.630;2022-09-24T00:39:44;14.60;99.90
23873;DHT22;42884;50.718;4.630;2022-09-24T00:42:10;14.60;99.90
23873;DHT22;42884;50.718;4.630;2022-09-24T00:44:52;14.70;99.90
23873;DHT22;42884;50.718;4.630;2022-09-24T00:47:37;14.70;99.90
23873;DHT22;42884;50.718;4.630;2022-09-24T00:52:38;14.60;99.90
23873;DHT22;42884;50.718;4.630;2022-09-24T00:55:04;14.70;99.90
23873;DHT22;42884;50.718;4.630;2022-09-24T00:57:30;14.60;99.90
23873;DHT22;42884;50.718;4.630;2022-09-24T00:59:55;14.70;99.90
23873;DHT22;42884;50.718;4.630;2022-09-24T01:02:21;14.60;99.90
23873;DHT22;42884;50.718;4.630;2022-09-24T01:04:48;14.60;99.90
23873;DHT22;42884;50.718;4.630;2022-09-24T01:07:14;14.60;99.90
23873;DHT22;42884;50.718;4.630;2022-09-24T01:09:39;14.60;99.90
23873;DHT22;42884;50.718;4.630;2022-09-24T01:14:47;14.60;99.90
23873;DHT22;42884;50.718;4.630;2022-09-24T01:17:23;14.50;99.90
23873;DHT22;42884;50.718;4.630;2022-09-24T01:24:54;14.50;99.90
23873;DHT22;42884;50.718;4.630;2022-09-24T01:30:07;14.50;99.90
23873;DHT22;42884;50.718;4.630;2022-09-24T01:32:42;14.60;99.90
23873;DHT22;42884;50.718;4.630;2022-09-24T01:35:19;14.50;99.90
23873;DHT22;42884;50.718;4.630;2022-09-24T01:37:48;14.50;99.90
23873;DHT22;42884;50.718;4.630;2022-09-24T01:40:16;14.50;99.90
23873;DHT22;42884;50.718;4.630;2022-09-24T01:42:43;14.50;99.90
23873;DHT22;42884;50.718;4.630;2022-09-24T01:45:09;14.50;99.90
23873;DHT22;42884;50.718;4.630;2022-09-24T01:47:36;14.50;99.90
23873;DHT22;42884;50.718;4.630;2022-09-24T01:50:10;14.50;99.90
23873;DHT22;42884;50.718;4.630;2022-09-24T01:52:40;14.50;99.90
23873;DHT22;42884;50.718;4.630;2022-09-24T01:55:09;14.50;99.90
23873;DHT22;42884;50.718;4.630;2022-09-24T01:57:41;14.50;99.90
23873;DHT22;42884;50.718;4.630;2022-09-24T02:00:11;14.40;99.90
23873;DHT22;42884;50.718;4.630;2022-09-24T02:02:38;14.50;99.90
23873;DHT22;42884;50.718;4.630;2022-09-24T02:05:19;14.40;99.90
23873;DHT22;42884;50.718;4.630;2022-09-24T02:10:21;14.50;99.90
23873;DHT22;42884;50.718;4.630;2022-09-24T02:12:52;14.40;99.90
23873;DHT22;42884;50.718;4.630;2022-09-24T02:15:23;14.50;99.90
23873;DHT22;42884;50.718;4.630;2022-09-24T02:17:52;14.50;99.90
23873;DHT22;42884;50.718;4.630;2022-09-24T02:20:20;14.40;99.90
23873;DHT22;42884;50.718;4.630;2022-09-24T02:22:46;14.40;99.90
23873;DHT22;42884;50.718;4.630;2022-09-24T02:25:14;14.40;99.90
23873;DHT22;42884;50.718;4.630;2022-09-24T02:27:41;14.40;99.90
23873;DHT22;42884;50.718;4.630;2022-09-24T02:30:07;14.40;99.90
23873;DHT22;42884;50.718;4.630;2022-09-24T02:32:34;14.40;99.90
23873;DHT22;42884;50.718;4.630;2022-09-24T02:35:05;14.40;99.90
23873;DHT22;42884;50.718;4.630;2022-09-24T02:37:36;14.40;99.90
23873;DHT22;42884;50.718;4.630;2022-09-24T02:40:03;14.40;99.90
23873;DHT22;42884;50.718;4.630;2022-09-24T02:42:30;14.40;99.90
23873;DHT22;42884;50.718;4.630;2022-09-24T02:44:56;14.40;99.90
23873;DHT22;42884;50.718;4.630;2022-09-24T02:47:23;14.40;99.90
23873;DHT22;42884;50.718;4.630;2022-09-24T02:49:49;14.40;99.90
23873;DHT22;42884;50.718;4.630;2022-09-24T02:52:15;14.40;99.90
23873;DHT22;42884;50.718;4.630;2022-09-24T02:54:40;14.40;99.90
23873;DHT22;42884;50.718;4.630;2022-09-24T02:57:17;14.40;99.90
23873;DHT22;42884;50.718;4.630;2022-09-24T02:59:43;14.50;99.90
23873;DHT22;42884;50.718;4.630;2022-09-24T03:02:08;14.50;99.90
23873;DHT22;42884;50.718;4.630;2022-09-24T03:04:34;14.50;99.90
23873;DHT22;42884;50.718;4.630;2022-09-24T03:06:59;14.40;99.90
23873;DHT22;42884;50.718;4.630;2022-09-24T03:09:25;14.50;99.90
23873;DHT22;42884;50.718;4.630;2022-09-24T03:11:50;14.50;99.90
23873;DHT22;42884;50.718;4.630;2022-09-24T03:14:16;14.40;99.90
23873;DHT22;42884;50.718;4.630;2022-09-24T03:16:42;14.40;99.90
23873;DHT22;42884;50.718;4.630;2022-09-24T03:19:07;14.40;99.90
23873;DHT22;42884;50.718;4.630;2022-09-24T03:21:33;14.40;99.90
23873;DHT22;42884;50.718;4.630;2022-09-24T03:23:58;14.40;99.90
23873;DHT22;42884;50.718;4.630;2022-09-24T03:26:24;14.40;99.90
23873;DHT22;42884;50.718;4.630;2022-09-24T03:28:50;14.40;99.90
23873;DHT22;42884;50.718;4.630;2022-09-24T03:31:16;14.40;99.90
23873;DHT22;42884;50.718;4.630;2022-09-24T03:33:42;14.40;99.90
23873;DHT22;42884;50.718;4.630;2022-09-24T03:36:13;14.50;99.90
23873;DHT22;42884;50.718;4.630;2022-09-24T03:38:44;14.50;99.90
23873;DHT22;42884;50.718;4.630;2022-09-24T03:41:10;14.40;99.90
23873;DHT22;42884;50.718;4.630;2022-09-24T03:43:36;14.50;99.90
23873;DHT22;42884;50.718;4.630;2022-09-24T03:46:02;14.40;99.90
23873;DHT22;42884;50.718;4.630;2022-09-24T03:48:28;14.40;99.90
23873;DHT22;42884;50.718;4.630;2022-09-24T03:50:56;14.40;99.90
23873;DHT22;42884;50.718;4.630;2022-09-24T03:53:26;14.40;99.90
23873;DHT22;42884;50.718;4.630;2022-09-24T03:55:53;14.40;99.90
23873;DHT22;42884;50.718;4.630;2022-09-24T03:58:20;14.40;99.90
23873;DHT22;42884;50.718;4.630;2022-09-24T04:00:45;14.40;99.90
23873;DHT22;42884;50.718;4.630;2022-09-24T04:03:11;14.40;99.90
23873;DHT22;42884;50.718;4.630;2022-09-24T04:05:36;14.40;99.90
23873;DHT22;42884;50.718;4.630;2022-09-24T04:08:02;14.40;99.90
23873;DHT22;42884;50.718;4.630;2022-09-24T04:10:29;14.40;99.90
23873;DHT22;42884;50.718;4.630;2022-09-24T04:12:54;14.50;99.90
23873;DHT22;42884;50.718;4.630;2022-09-24T04:15:20;14.50;99.90
23873;DHT22;42884;50.718;4.630;2022-09-24T04:17:52;14.50;99.90
23873;DHT22;42884;50.718;4.630;2022-09-24T04:20:18;14.50;99.90
23873;DHT22;42884;50.718;4.630;2022-09-24T04:22:50;14.50;99.90
23873;DHT22;42884;50.718;4.630;2022-09-24T04:25:17;14.50;99.90
23873;DHT22;42884;50.718;4.630;2022-09-24T04:27:42;14.50;99.90
23873;DHT22;42884;50.718;4.630;2022-09-24T04:30:09;14.50;99.90
23873;DHT22;42884;50.718;4.630;2022-09-24T04:32:35;14.50;99.90
23873;DHT22;42884;50.718;4.630;2022-09-24T04:35:00;14.50;99.90
23873;DHT22;42884;50.718;4.630;2022-09-24T04:37:26;14.60;99.90
23873;DHT22;42884;50.718;4.630;2022-09-24T04:39:51;14.60;99.90
23873;DHT22;42884;50.718;4.630;2022-09-24T04:42:17;14.60;99.90
23873;DHT22;42884;50.718;4.630;2022-09-24T04:44:46;14.50;99.90
23873;DHT22;42884;50.718;4.630;2022-09-24T04:47:15;14.60;99.90
23873;DHT22;42884;50.718;4.630;2022-09-24T04:49:41;14.60;99.90
23873;DHT22;42884;50.718;4.630;2022-09-24T04:52:09;14.60;99.90
23873;DHT22;42884;50.718;4.630;2022-09-24T04:54:34;14.60;99.90
23873;DHT22;42884;50.718;4.630;2022-09-24T04:57:00;14.60;99.90
23873;DHT22;42884;50.718;4.630;2022-09-24T04:59:25;14.60;99.90
23873;DHT22;42884;50.718;4.630;2022-09-24T05:01:51;14.60;99.90
23873;DHT22;42884;50.718;4.630;2022-09-24T05:04:18;14.60;99.90
23873;DHT22;42884;50.718;4.630;2022-09-24T05:06:44;14.60;99.90
23873;DHT22;42884;50.718;4.630;2022-09-24T05:09:09;14.50;99.90
23873;DHT22;42884;50.718;4.630;2022-09-24T05:11:35;14.50;99.90
23873;DHT22;42884;50.718;4.630;2022-09-24T05:14:00;14.50;99.90
23873;DHT22;42884;50.718;4.630;2022-09-24T05:16:26;14.60;99.90
23873;DHT22;42884;50.718;4.630;2022-09-24T05:18:51;14.50;99.90
23873;DHT22;42884;50.718;4.630;2022-09-24T05:21:17;14.50;99.90
23873;DHT22;42884;50.718;4.630;2022-09-24T05:23:42;14.50;99.90
23873;DHT22;42884;50.718;4.630;2022-09-24T05:26:08;14.50;99.90
23873;DHT22;42884;50.718;4.630;2022-09-24T05:28:52;14.50;99.90
23873;DHT22;42884;50.718;4.630;2022-09-24T05:31:18;14.50;99.90
23873;DHT22;42884;50.718;4.630;2022-09-24T05:33:43;14.50;99.90
23873;DHT22;42884;50.718;4.630;2022-09-24T05:36:10;14.50;99.90
23873;DHT22;42884;50.718;4.630;2022-09-24T05:38:35;14.50;99.90
23873;DHT22;42884;50.718;4.630;2022-09-24T05:41:01;14.60;99.90
23873;DHT22;42884;50.718;4.630;2022-09-24T05:43:27;14.50;99.90
23873;DHT22;42884;50.718;4.630;2022-09-24T05:45:52;14.60;99.90
23873;DHT22;42884;50.718;4.630;2022-09-24T05:48:19;14.50;99.90
23873;DHT22;42884;50.718;4.630;2022-09-24T05:50:45;14.50;99.90
23873;DHT22;42884;50.718;4.630;2022-09-24T05:53:11;14.50;99.90
23873;DHT22;42884;50.718;4.630;2022-09-24T05:55:37;14.50;99.90
23873;DHT22;42884;50.718;4.630;2022-09-24T05:58:07;14.50;99.90
23873;DHT22;42884;50.718;4.630;2022-09-24T06:00:34;14.60;99.90
23873;DHT22;42884;50.718;4.630;2022-09-24T06:03:10;14.60;99.90
23873;DHT22;42884;50.718;4.630;2022-09-24T06:05:35;14.60;99.90
23873;DHT22;42884;50.718;4.630;2022-09-24T06:08:02;14.60;99.90
23873;DHT22;42884;50.718;4.630;2022-09-24T06:10:28;14.60;99.90
23873;DHT22;42884;50.718;4.630;2022-09-24T06:12:53;14.60;99.90
23873;DHT22;42884;50.718;4.630;2022-09-24T06:15:19;14.60;99.90
23873;DHT22;42884;50.718;4.630;2022-09-24T06:17:45;14.70;99.90
23873;DHT22;42884;50.718;4.630;2022-09-24T06:20:10;14.70;99.90
23873;DHT22;42884;50.718;4.630;2022-09-24T06:22:36;14.70;99.90
23873;DHT22;42884;50.718;4.630;2022-09-24T06:25:01;14.70;99.90
23873;DHT22;42884;50.718;4.630;2022-09-24T06:27:27;14.70;99.90
23873;DHT22;42884;50.718;4.630;2022-09-24T06:29:52;14.70;99.90
23873;DHT22;42884;50.718;4.630;2022-09-24T06:32:18;14.80;99.90
23873;DHT22;42884;50.718;4.630;2022-09-24T06:34:44;14.80;99.90
23873;DHT22;42884;50.718;4.630;2022-09-24T06:37:09;14.80;99.90
23873;DHT22;42884;50.718;4.630;2022-09-24T06:39:35;14.80;99.90
23873;DHT22;42884;50.718;4.630;2022-09-24T06:42:00;14.80;99.90
23873;DHT22;42884;50.718;4.630;2022-09-24T06:44:26;14.80;99.90
23873;DHT22;42884;50.718;4.630;2022-09-24T06:46:52;14.80;99.90
23873;DHT22;42884;50.718;4.630;2022-09-24T06:49:17;14.80;99.90
23873;DHT22;42884;50.718;4.630;2022-09-24T06:51:43;14.90;99.90
23873;DHT22;42884;50.718;4.630;2022-09-24T06:54:08;14.80;99.90
23873;DHT22;42884;50.718;4.630;2022-09-24T06:56:34;14.80;99.90
23873;DHT22;42884;50.718;4.630;2022-09-24T06:58:59;14.80;99.90
23873;DHT22;42884;50.718;4.630;2022-09-24T07:01:25;14.90;99.90
23873;DHT22;42884;50.718;4.630;2022-09-24T07:03:50;14.90;99.90
23873;DHT22;42884;50.718;4.630;2022-09-24T07:06:16;15.00;99.90
23873;DHT22;42884;50.718;4.630;2022-09-24T07:08:41;15.00;99.90
23873;DHT22;42884;50.718;4.630;2022-09-24T07:11:07;15.00;99.90
23873;DHT22;42884;50.718;4.630;2022-09-24T07:13:33;15.00;99.90
23873;DHT22;42884;50.718;4.630;2022-09-24T07:15:59;15.10;99.90
23873;DHT22;42884;50.718;4.630;2022-09-24T07:18:25;15.00;99.90
23873;DHT22;42884;50.718;4.630;2022-09-24T07:20:54;15.10;99.90
23873;DHT22;42884;50.718;4.630;2022-09-24T07:23:20;15.10;99.90
23873;DHT22;42884;50.718;4.630;2022-09-24T07:25:46;15.10;99.90
23873;DHT22;42884;50.718;4.630;2022-09-24T07:28:13;15.20;99.90
23873;DHT22;42884;50.718;4.630;2022-09-24T07:30:42;15.20;99.90
23873;DHT22;42884;50.718;4.630;2022-09-24T07:33:08;15.20;99.90
23873;DHT22;42884;50.718;4.630;2022-09-24T07:35:35;15.20;99.90
23873;DHT22;42884;50.718;4.630;2022-09-24T07:38:02;15.20;99.90
23873;DHT22;42884;50.718;4.630;2022-09-24T07:40:28;15.10;99.90
23873;DHT22;42884;50.718;4.630;2022-09-24T07:42:54;15.10;99.90
23873;DHT22;42884;50.718;4.630;2022-09-24T07:45:20;15.10;99.90
23873;DHT22;42884;50.718;4.630;2022-09-24T07:47:46;15.10;99.90
23873;DHT22;42884;50.718;4.630;2022-09-24T07:50:12;15.10;99.90
23873;DHT22;42884;50.718;4.630;2022-09-24T07:52:38;15.10;99.90
23873;DHT22;42884;50.718;4.630;2022-09-24T07:55:04;15.10;99.90
23873;DHT22;42884;50.718;4.630;2022-09-24T07:57:29;15.20;99.90
23873;DHT22;42884;50.718;4.630;2022-09-24T07:59:55;15.20;99.90
23873;DHT22;42884;50.718;4.630;2022-09-24T08:02:20;15.20;99.90
23873;DHT22;42884;50.718;4.630;2022-09-24T08:04:46;15.30;99.90
23873;DHT22;42884;50.718;4.630;2022-09-24T08:07:12;15.30;99.90
23873;DHT22;42884;50.718;4.630;2022-09-24T08:09:38;15.40;99.90
23873;DHT22;42884;50.718;4.630;2022-09-24T08:12:04;15.40;99.90
23873;DHT22;42884;50.718;4.630;2022-09-24T08:14:30;15.30;99.90
23873;DHT22;42884;50.718;4.630;2022-09-24T08:16:55;15.30;99.90
23873;DHT22;42884;50.718;4.630;2022-09-24T08:19:21;15.40;99.90
23873;DHT22;42884;50.718;4.630;2022-09-24T08:21:46;15.40;99.90
23873;DHT22;42884;50.718;4.630;2022-09-24T08:24:13;15.50;99.90
23873;DHT22;42884;50.718;4.630;2022-09-24T08:26:38;15.50;99.90
23873;DHT22;42884;50.718;4.630;2022-09-24T08:29:04;15.50;99.90
23873;DHT22;42884;50.718;4.630;2022-09-24T08:31:30;15.50;99.90
23873;DHT22;42884;50.718;4.630;2022-09-24T08:33:56;15.50;99.90
23873;DHT22;42884;50.718;4.630;2022-09-24T08:36:21;15.60;99.90
23873;DHT22;42884;50.718;4.630;2022-09-24T08:38:47;15.60;99.90
23873;DHT22;42884;50.718;4.630;2022-09-24T08:41:15;15.50;99.90
23873;DHT22;42884;50.718;4.630;2022-09-24T08:46:15;15.40;99.90
23873;DHT22;42884;50.718;4.630;2022-09-24T08:49:01;15.40;99.90
23873;DHT22;42884;50.718;4.630;2022-09-24T08:51:27;15.50;99.90
23873;DHT22;42884;50.718;4.630;2022-09-24T08:56:25;15.50;99.90
23873;DHT22;42884;50.718;4.630;2022-09-24T09:01:43;15.60;99.90
23873;DHT22;42884;50.718;4.630;2022-09-24T09:07:19;15.80;99.90
23873;DHT22;42884;50.718;4.630;2022-09-24T09:09:53;16.00;99.90
23873;DHT22;42884;50.718;4.630;2022-09-24T09:12:28;15.90;99.90
23873;DHT22;42884;50.718;4.630;2022-09-24T09:15:00;16.10;99.90
23873;DHT22;42884;50.718;4.630;2022-09-24T09:20:00;16.10;99.90
23873;DHT22;42884;50.718;4.630;2022-09-24T09:22:32;16.00;99.90
23873;DHT22;42884;50.718;4.630;2022-09-24T09:25:09;16.00;99.90
23873;DHT22;42884;50.718;4.630;2022-09-24T09:27:37;16.10;99.90
23873;DHT22;42884;50.718;4.630;2022-09-24T09:30:03;16.20;99.90
23873;DHT22;42884;50.718;4.630;2022-09-24T09:32:40;16.30;99.90
23873;DHT22;42884;50.718;4.630;2022-09-24T09:35:16;16.40;99.90
23873;DHT22;42884;50.718;4.630;2022-09-24T09:42:37;16.40;99.90
23873;DHT22;42884;50.718;4.630;2022-09-24T09:45:21;16.40;99.90
23873;DHT22;42884;50.718;4.630;2022-09-24T09:47:53;16.50;99.90
23873;DHT22;42884;50.718;4.630;2022-09-24T09:52:48;16.80;99.90
23873;DHT22;42884;50.718;4.630;2022-09-24T09:55:26;17.00;99.90
23873;DHT22;42884;50.718;4.630;2022-09-24T09:57:52;17.10;99.90
23873;DHT22;42884;50.718;4.630;2022-09-24T10:00:34;17.20;99.90
23873;DHT22;42884;50.718;4.630;2022-09-24T10:03:00;17.30;99.90
23873;DHT22;42884;50.718;4.630;2022-09-24T10:05:27;17.30;99.90
23873;DHT22;42884;50.718;4.630;2022-09-24T10:07:55;17.40;99.90
23873;DHT22;42884;50.718;4.630;2022-09-24T10:10:23;17.40;99.90
23873;DHT22;42884;50.718;4.630;2022-09-24T10:12:52;17.50;99.90
23873;DHT22;42884;50.718;4.630;2022-09-24T10:15:19;17.50;99.90
23873;DHT22;42884;50.718;4.630;2022-09-24T10:17:46;17.50;99.90
23873;DHT22;42884;50.718;4.630;2022-09-24T10:20:14;17.40;99.90
23873;DHT22;42884;50.718;4.630;2022-09-24T10:22:44;17.30;99.90
23873;DHT22;42884;50.718;4.630;2022-09-24T10:25:47;17.40;99.90
23873;DHT22;42884;50.718;4.630;2022-09-24T10:28:06;17.00;99.90
23873;DHT22;42884;50.718;4.630;2022-09-24T10:31:02;17.10;99.90
23873;DHT22;42884;50.718;4.630;2022-09-24T10:33:39;17.00;99.90
23873;DHT22;42884;50.718;4.630;2022-09-24T10:38:40;17.20;99.90
23873;DHT22;42884;50.718;4.630;2022-09-24T10:41:24;17.30;99.90
23873;DHT22;42884;50.718;4.630;2022-09-24T10:43:54;17.40;99.90
23873;DHT22;42884;50.718;4.630;2022-09-24T10:49:06;17.50;99.90
23873;DHT22;42884;50.718;4.630;2022-09-24T10:56:51;17.50;99.90
23873;DHT22;42884;50.718;4.630;2022-09-24T10:59:36;17.40;99.90
23873;DHT22;42884;50.718;4.630;2022-09-24T11:09:54;17.50;99.90
23873;DHT22;42884;50.718;4.630;2022-09-24T11:12:31;17.60;99.90
23873;DHT22;42884;50.718;4.630;2022-09-24T11:15:06;17.70;99.90
23873;DHT22;42884;50.718;4.630;2022-09-24T11:17:37;17.80;99.90
23873;DHT22;42884;50.718;4.630;2022-09-24T11:23:05;17.40;99.90
23873;DHT22;42884;50.718;4.630;2022-09-24T11:28:20;17.50;99.90
23873;DHT22;42884;50.718;4.630;2022-09-24T11:56:38;17.20;99.90
23873;DHT22;42884;50.718;4.630;2022-09-24T12:01:32;17.20;99.90
23873;DHT22;42884;50.718;4.630;2022-09-24T12:06:59;17.20;99.90
23873;DHT22;42884;50.718;4.630;2022-09-24T12:12:03;17.30;99.90
23873;DHT22;42884;50.718;4.630;2022-09-24T12:14:34;17.30;99.90
23873;DHT22;42884;50.718;4.630;2022-09-24T12:17:03;17.40;99.90
23873;DHT22;42884;50.718;4.630;2022-09-24T12:19:41;17.40;99.90
23873;DHT22;42884;50.718;4.630;2022-09-24T12:22:11;17.40;99.90
23873;DHT22;42884;50.718;4.630;2022-09-24T12:24:42;17.30;99.90
23873;DHT22;42884;50.718;4.630;2022-09-24T12:27:10;17.20;99.90
23873;DHT22;42884;50.718;4.630;2022-09-24T12:29:44;17.20;99.90
23873;DHT22;42884;50.718;4.630;2022-09-24T12:32:34;17.20;99.90
23873;DHT22;42884;50.718;4.630;2022-09-24T12:35:32;17.30;99.90
23873;DHT22;42884;50.718;4.630;2022-09-24T12:38:09;17.30;99.90
23873;DHT22;42884;50.718;4.630;2022-09-24T12:43:16;17.30;99.90
23873;DHT22;42884;50.718;4.630;2022-09-24T12:45:44;17.30;99.90
23873;DHT22;42884;50.718;4.630;2022-09-24T12:48:10;17.30;99.90
23873;DHT22;42884;50.718;4.630;2022-09-24T12:50:38;17.40;99.90
23873;DHT22;42884;50.718;4.630;2022-09-24T12:53:17;17.40;99.90
23873;DHT22;42884;50.718;4.630;2022-09-24T12:55:49;17.40;99.90
23873;DHT22;42884;50.718;4.630;2022-09-24T13:01:13;17.40;99.90
23873;DHT22;42884;50.718;4.630;2022-09-24T13:06:34;17.30;99.90
23873;DHT22;42884;50.718;4.630;2022-09-24T13:09:00;17.20;99.90
23873;DHT22;42884;50.718;4.630;2022-09-24T13:11:27;17.30;99.90
23873;DHT22;42884;50.718;4.630;2022-09-24T13:14:27;17.30;99.90
23873;DHT22;42884;50.718;4.630;2022-09-24T13:16:51;17.40;99.90
23873;DHT22;42884;50.718;4.630;2022-09-24T13:21:57;17.40;99.90
23873;DHT22;42884;50.718;4.630;2022-09-24T13:24:31;17.40;99.90
23873;DHT22;42884;50.718;4.630;2022-09-24T13:29:45;17.20;99.90
23873;DHT22;42884;50.718;4.630;2022-09-24T13:32:13;17.30;99.90
23873;DHT22;42884;50.718;4.630;2022-09-24T13:34:42;17.30;99.90
23873;DHT22;42884;50.718;4.630;2022-09-24T13:42:34;17.40;99.90
23873;DHT22;42884;50.718;4.630;2022-09-24T13:45:01;17.50;99.90
23873;DHT22;42884;50.718;4.630;2022-09-24T13:50:01;17.00;99.90
23873;DHT22;42884;50.718;4.630;2022-09-24T13:52:31;17.10;99.90
23873;DHT22;42884;50.718;4.630;2022-09-24T13:55:00;17.10;99.90
23873;DHT22;42884;50.718;4.630;2022-09-24T13:57:26;17.20;99.90
23873;DHT22;42884;50.718;4.630;2022-09-24T14:03:01;16.90;99.90
23873;DHT22;42884;50.718;4.630;2022-09-24T14:05:28;16.80;99.90
23873;DHT22;42884;50.718;4.630;2022-09-24T14:07:56;16.90;99.90
23873;DHT22;42884;50.718;4.630;2022-09-24T14:10:22;17.00;99.90
23873;DHT22;42884;50.718;4.630;2022-09-24T14:15:34;16.90;99.90
23873;DHT22;42884;50.718;4.630;2022-09-24T14:18:00;16.80;99.90
23873;DHT22;42884;50.718;4.630;2022-09-24T14:20:27;16.90;99.90
23873;DHT22;42884;50.718;4.630;2022-09-24T14:22:53;17.00;99.90
23873;DHT22;42884;50.718;4.630;2022-09-24T14:25:19;17.00;99.90
23873;DHT22;42884;50.718;4.630;2022-09-24T14:27:49;17.10;99.90
23873;DHT22;42884;50.718;4.630;2022-09-24T14:32:44;17.00;99.90
23873;DHT22;42884;50.718;4.630;2022-09-24T14:35:16;17.10;99.90
23873;DHT22;42884;50.718;4.630;2022-09-24T14:40:46;17.10;99.90
23873;DHT22;42884;50.718;4.630;2022-09-24T14:43:13;17.00;99.90
23873;DHT22;42884;50.718;4.630;2022-09-24T14:45:40;17.00;99.90
23873;DHT22;42884;50.718;4.630;2022-09-24T14:50:50;16.80;99.90
23873;DHT22;42884;50.718;4.630;2022-09-24T14:53:23;16.80;99.90
23873;DHT22;42884;50.718;4.630;2022-09-24T14:55:49;16.60;99.90
23873;DHT22;42884;50.718;4.630;2022-09-24T14:58:22;16.70;99.90
23873;DHT22;42884;50.718;4.630;2022-09-24T15:04:02;16.70;99.90
23873;DHT22;42884;50.718;4.630;2022-09-24T15:06:32;16.70;99.90
23873;DHT22;42884;50.718;4.630;2022-09-24T15:09:03;16.60;99.90
23873;DHT22;42884;50.718;4.630;2022-09-24T15:11:30;16.50;99.90
23873;DHT22;42884;50.718;4.630;2022-09-24T15:13:57;16.50;99.90
23873;DHT22;42884;50.718;4.630;2022-09-24T15:16:27;16.50;99.90
23873;DHT22;42884;50.718;4.630;2022-09-24T15:18:58;16.50;99.90
23873;DHT22;42884;50.718;4.630;2022-09-24T15:21:25;16.50;99.90
23873;DHT22;42884;50.718;4.630;2022-09-24T15:23:52;16.50;99.90
23873;DHT22;42884;50.718;4.630;2022-09-24T15:26:17;16.30;99.90
23873;DHT22;42884;50.718;4.630;2022-09-24T15:28:44;16.30;99.90
23873;DHT22;42884;50.718;4.630;2022-09-24T15:31:10;16.20;99.90
23873;DHT22;42884;50.718;4.630;2022-09-24T15:33:35;16.10;99.90
23873;DHT22;42884;50.718;4.630;2022-09-24T15:36:01;16.00;99.90
23873;DHT22;42884;50.718;4.630;2022-09-24T15:38:26;16.00;99.90
23873;DHT22;42884;50.718;4.630;2022-09-24T15:40:52;16.00;99.90
23873;DHT22;42884;50.718;4.630;2022-09-24T15:43:19;16.00;99.90
23873;DHT22;42884;50.718;4.630;2022-09-24T15:45:45;16.00;99.90
23873;DHT22;42884;50.718;4.630;2022-09-24T15:48:11;16.20;99.90
23873;DHT22;42884;50.718;4.630;2022-09-24T15:50:37;16.20;99.90
23873;DHT22;42884;50.718;4.630;2022-09-24T15:53:03;16.20;99.90
23873;DHT22;42884;50.718;4.630;2022-09-24T15:55:29;16.20;99.90
23873;DHT22;42884;50.718;4.630;2022-09-24T15:57:55;16.20;99.90
23873;DHT22;42884;50.718;4.630;2022-09-24T16:00:23;16.00;99.90
23873;DHT22;42884;50.718;4.630;2022-09-24T16:02:49;16.00;99.90
23873;DHT22;42884;50.718;4.630;2022-09-24T16:05:16;16.00;99.90
23873;DHT22;42884;50.718;4.630;2022-09-24T16:07:42;16.10;99.90
23873;DHT22;42884;50.718;4.630;2022-09-24T16:10:08;16.00;99.90
23873;DHT22;42884;50.718;4.630;2022-09-24T16:12:34;16.00;99.90
23873;DHT22;42884;50.718;4.630;2022-09-24T16:15:00;16.00;99.90
23873;DHT22;42884;50.718;4.630;2022-09-24T16:17:26;16.00;99.90
23873;DHT22;42884;50.718;4.630;2022-09-24T16:19:52;16.10;99.90
23873;DHT22;42884;50.718;4.630;2022-09-24T16:22:18;16.10;99.90
23873;DHT22;42884;50.718;4.630;2022-09-24T16:24:43;16.10;99.90
23873;DHT22;42884;50.718;4.630;2022-09-24T16:27:09;16.20;99.90
23873;DHT22;42884;50.718;4.630;2022-09-24T16:29:35;16.10;99.90
23873;DHT22;42884;50.718;4.630;2022-09-24T16:32:00;16.20;99.90
23873;DHT22;42884;50.718;4.630;2022-09-24T16:34:26;16.20;99.90
23873;DHT22;42884;50.718;4.630;2022-09-24T16:36:52;16.10;99.90
23873;DHT22;42884;50.718;4.630;2022-09-24T16:39:18;16.10;99.90
23873;DHT22;42884;50.718;4.630;2022-09-24T16:41:46;16.10;99.90
23873;DHT22;42884;50.718;4.630;2022-09-24T16:44:11;15.80;99.90
23873;DHT22;42884;50.718;4.630;2022-09-24T16:46:40;15.80;99.90
23873;DHT22;42884;50.718;4.630;2022-09-24T16:49:06;15.90;99.90
23873;DHT22;42884;50.718;4.630;2022-09-24T16:51:31;15.90;99.90
23873;DHT22;42884;50.718;4.630;2022-09-24T16:53:57;16.00;99.90
23873;DHT22;42884;50.718;4.630;2022-09-24T16:56:22;16.00;99.90
23873;DHT22;42884;50.718;4.630;2022-09-24T16:58:48;16.00;99.90
23873;DHT22;42884;50.718;4.630;2022-09-24T17:01:15;16.00;99.90
23873;DHT22;42884;50.718;4.630;2022-09-24T17:03:40;16.00;99.90
23873;DHT22;42884;50.718;4.630;2022-09-24T17:06:06;16.00;99.90
23873;DHT22;42884;50.718;4.630;2022-09-24T17:08:33;15.90;99.90
23873;DHT22;42884;50.718;4.630;2022-09-24T17:11:17;16.00;99.90
23873;DHT22;42884;50.718;4.630;2022-09-24T17:13:43;15.90;99.90
23873;DHT22;42884;50.718;4.630;2022-09-24T17:16:09;16.00;99.90
23873;DHT22;42884;50.718;4.630;2022-09-24T17:18:34;16.00;99.90
23873;DHT22;42884;50.718;4.630;2022-09-24T17:21:04;16.00;99.90
23873;DHT22;42884;50.718;4.630;2022-09-24T17:23:30;16.00;99.90
23873;DHT22;42884;50.718;4.630;2022-09-24T17:25:59;15.90;99.90
23873;DHT22;42884;50.718;4.630;2022-09-24T17:28:25;16.00;99.90
23873;DHT22;42884;50.718;4.630;2022-09-24T17:30:50;15.90;99.90
23873;DHT22;42884;50.718;4.630;2022-09-24T17:33:16;15.90;99.90
23873;DHT22;42884;50.718;4.630;2022-09-24T17:35:41;15.90;99.90
23873;DHT22;42884;50.718;4.630;2022-09-24T17:38:17;15.80;99.90
23873;DHT22;42884;50.718;4.630;2022-09-24T17:40:51;15.60;99.90
23873;DHT22;42884;50.718;4.630;2022-09-24T17:43:16;15.60;99.90
23873;DHT22;42884;50.718;4.630;2022-09-24T17:45:42;15.50;99.90
23873;DHT22;42884;50.718;4.630;2022-09-24T17:48:07;15.50;99.90